Nearby METAR Reports

 

KNTU - NAS Oceana, Virginia Beach, Virginia, USA
Distance from station: N 3.2mi, 5.1km
Updated: Mon, 17-Feb-2020 6:56am EST
Shallow fog, Partly cloudy
Shallow fog, Partly cloudy
 Wind from calm
Wind: Calm
Temperature: 39°F , 4°C
Dew Point: 37°F , 3°C
Humidity: 93%
Barometer: 30.15 inHg , 1021 hPa
Summary: Shallow Fog
Clouds: Partly cloudy
Visibility: 7 miles , 11 km
Cloud details: Few Clouds 11000 ft
Few Clouds 20000 ft
Partly cloudy 25000 ft
2020/02/17 11:56 KNTU 171156Z 00000KT 7SM MIFG FEW110 FEW200 SCT250 04/03 A3015 RMK AO2 SLP212 60000 T00390033 10072 20028 53021 $
KNFE - Fentress NALF, Virginia Beach Virginia, USA
Distance from station: SW 7.6mi, 12.2km
Updated: Mon, 17-Feb-2020 7:07am EST
Mist, Overcast
Mist, Overcast
 Wind from calm
Wind: Calm
Temperature: 41°F , 5°C
Dew Point: 37°F , 3°C
Humidity: 87%
Barometer: 30.17 inHg , 1021.7 hPa
Summary: Mist
Clouds: Overcast
Visibility: 1 mile , 2 km
Cloud details: Partly cloudy 300 ft
Overcast 10000 ft
2020/02/17 12:07 KNFE 171207Z AUTO 00000KT 1SM BR SCT003 OVC100 05/03 A3017 RMK AO2 T00500033
 
KORF - Norfolk International, Norfolk, Virginia, USA
Distance from station: NW 12.2mi, 19.6km
Updated: Mon, 17-Feb-2020 6:51am EST
Clear
Clear
 Wind from calm
Wind: Calm
Temperature: 43°F , 6°C
Dew Point: 39°F , 4°C
Humidity: 87%
Barometer: 30.15 inHg , 1021 hPa
Clouds: Clear
Visibility: 8 miles , 13 km
2020/02/17 11:51 KORF 171151Z 00000KT 8SM CLR 06/04 A3015 RMK AO2 SLP210 T00560039 10089 20056 53021 $
KCPK - Cheasapeak Municipal, Cheasapeak, Virginia, USA
Distance from station: SW 17.2mi, 27.7km
Updated: Mon, 17-Feb-2020 6:55am EST
Fog, Overcast
Fog, Overcast
 Wind from calm
Wind: Calm
Temperature: 36°F , 2°C
Dew Point: 34°F , 1°C
Humidity: 93%
Barometer: 30.17 inHg , 1021.7 hPa
Summary: Fog
Clouds: Overcast
Visibility: 1/2 mile , 0.8 km
Cloud details: Overcast 200 ft
2020/02/17 11:55 KCPK 171155Z AUTO 00000KT 1/2SM FG OVC002 02/01 A3017 RMK AO2 T00190014 10066 20019
 
KNGU - NAS Norfolk, Norfolk, Virginia, USA
Distance from station: NW 17.7mi, 28.5km
Updated: Mon, 17-Feb-2020 6:59am EST
Mist, Partly cloudy
Mist, Partly cloudy
 Wind from calm
Wind: Calm
Temperature: 41°F , 5°C
Dew Point: 39°F , 4°C
Humidity: 93%
Barometer: 30.17 inHg , 1021.7 hPa
Summary: Mist
Clouds: Partly cloudy
Visibility: 6 miles , 10 km
Cloud details: Partly cloudy 10000 ft
Partly cloudy 26000 ft
2020/02/17 11:59 KNGU 171159Z 00000KT 6SM BR SCT100 SCT260 05/04 A3017 RMK AO2 SLP216 T00500039 10089 20044 53023